COOK1: Arkansas River Nr Coolidge, KS

                                SHEF ID:       COOK1     ARKANSAS R NR COOLIDGE, KS
STATION TYPE:
Regulating: Stage = 8.00, Flow = 2050

PRECIP STAGE STAGE(2) RIV-FLOW WTR-TEMP CONDUCT BAT-LOAD
in ft ft cfs F umho/cm volt
Ccp-Rev Ccp-Rev Ccp-Rev Ccp-Rev Ccp-Rev Ccp-Rev Ccp-Rev
(America/Chicago)
06/19 00:00 0.00 2.50 2.58 54 72.32 5992 12.95
06/19 01:00 0.00 2.51 2.57 55 71.06 5969 12.89
06/19 02:00 0.00 2.50 2.58 54 70.02 5969 12.89
06/19 03:00 0.00 2.49 2.58 53 69.03 5990 12.89
06/19 04:00 0.01 2.50 2.59 54 68.09 5983 12.89
06/19 05:00 0.01 2.52 2.59 55 67.28 5972 12.83
06/19 06:00 0.03 2.52 2.59 55 66.29 5962 12.83
06/19 07:00 0.01 2.53 2.59 56 65.41 5983 12.77
06/19 08:00 0.00 2.52 2.59 55 64.83 5974 12.77
06/19 09:00 0.00 2.53 2.60 56 64.47 5938 12.77
06/19 10:00 0.00 2.52 2.60 55 64.24 5926 12.77
06/19 11:00 0.00 2.52 2.60 55 64.18 5918 12.77
06/19 12:00 0.00 2.53 2.61 56 64.60 5913 13.24
06/19 13:00 0.00 2.53 2.62 56 64.90 5897 13.24
06/19 14:00 0.00 2.54 2.62 57 65.25 5875 13.24
06/19 15:00 0.03 2.55 2.62 58 65.26 5852 13.18
06/19 16:00 0.00 2.56 2.62 59 66.20 5841 13.65
06/19 17:00 0.00 2.56 2.64 59 67.35 5852 13.65
06/19 18:00 0.00 2.59 2.65 62 68.65 5836 13.65
06/19 19:00 0.00 2.57 2.65 60 68.63 5778 13.53
06/19 20:00 0.00 2.59 2.66 62 68.27 5755 13.30
06/19 21:00 0.00 2.57 2.66 60 67.78 5762 13.18
06/19 22:00 0.00 2.57 2.64 60 67.14 5756 13.00
06/19 23:00 ---- ---- ---- ---- ---- ---- ----
Data processed at Thu 20Jun2024 04:30 GMT

Parsing this webpage?

Checkout our new Data API! CWMSDataAPI (CDA)

Timeseries IDs (TSIDs)

TSIDs used from left to right in the data table
COOL.Precip-Inc.Total.1Hour.1Hour.Ccp-Rev
COOL.Stage.Inst.1Hour.0.Ccp-Rev
COOL.Stage-Alt.Inst.1Hour.0.Ccp-Rev
COOL.Flow.Inst.1Hour.0.Ccp-Rev
COOL.Temp-Water.Inst.1Hour.0.Ccp-Rev
COOL.Cond.Inst.1Hour.0.Ccp-Rev
COOL.Volt-Battery Load.Inst.1Hour.0.Ccp-Rev

                            

All information presented herein is the property of the government of the United States of America and may be revised or deleted at any time without prior notice. Dissemination of this information without the expressed written consent of the Public Affairs Office, Tulsa District U.S. Army Corps of Engineers is strictly prohibited. These data are gathered electronically and, as presented, have NOT undergone any form of quality control. These data are NOT guaranteed to be valid or correct.